sensor_id;sensor_type;location;lat;lon;timestamp;pressure;altitude;pressure_sealevel;temperature;humidity
75039;BME280;63609;49.992;14.512;2022-10-16T00:02:08;98015.31;;;15.22;73.37
75039;BME280;63609;49.992;14.512;2022-10-16T00:04:35;97998.06;;;15.08;73.85
75039;BME280;63609;49.992;14.512;2022-10-16T00:07:02;97992.00;;;14.90;74.29
75039;BME280;63609;49.992;14.512;2022-10-16T00:09:29;97992.13;;;14.72;74.80
75039;BME280;63609;49.992;14.512;2022-10-16T00:11:55;97995.31;;;14.68;75.02
75039;BME280;63609;49.992;14.512;2022-10-16T00:14:22;97994.16;;;14.70;75.19
75039;BME280;63609;49.992;14.512;2022-10-16T00:16:49;97989.19;;;14.92;74.13
75039;BME280;63609;49.992;14.512;2022-10-16T00:19:15;97994.84;;;14.89;74.14
75039;BME280;63609;49.992;14.512;2022-10-16T00:21:43;97992.31;;;14.87;73.91
75039;BME280;63609;49.992;14.512;2022-10-16T00:24:10;97986.81;;;14.89;74.01
75039;BME280;63609;49.992;14.512;2022-10-16T00:26:39;97995.66;;;14.81;73.88
75039;BME280;63609;49.992;14.512;2022-10-16T00:29:07;97983.94;;;14.74;74.14
75039;BME280;63609;49.992;14.512;2022-10-16T00:31:34;97993.41;;;14.60;74.71
75039;BME280;63609;49.992;14.512;2022-10-16T00:34:01;98005.00;;;14.69;74.45
75039;BME280;63609;49.992;14.512;2022-10-16T00:36:28;98001.56;;;14.93;73.83
75039;BME280;63609;49.992;14.512;2022-10-16T00:38:57;98009.38;;;14.86;73.93
75039;BME280;63609;49.992;14.512;2022-10-16T00:41:31;98000.56;;;14.94;74.02
75039;BME280;63609;49.992;14.512;2022-10-16T00:44:00;98008.25;;;14.97;73.72
75039;BME280;63609;49.992;14.512;2022-10-16T00:46:39;98013.63;;;15.13;73.10
75039;BME280;63609;49.992;14.512;2022-10-16T00:54:14;98007.47;;;15.29;72.37
75039;BME280;63609;49.992;14.512;2022-10-16T00:56:42;98008.47;;;15.28;72.65
75039;BME280;63609;49.992;14.512;2022-10-16T00:59:24;98005.97;;;15.26;72.98
75039;BME280;63609;49.992;14.512;2022-10-16T01:01:53;98005.78;;;15.28;72.48
75039;BME280;63609;49.992;14.512;2022-10-16T01:04:20;98002.59;;;15.32;72.52
75039;BME280;63609;49.992;14.512;2022-10-16T01:06:56;98011.13;;;15.44;72.06
75039;BME280;63609;49.992;14.512;2022-10-16T01:09:44;98023.88;;;15.42;71.91
75039;BME280;63609;49.992;14.512;2022-10-16T01:12:23;98018.50;;;15.66;70.43
75039;BME280;63609;49.992;14.512;2022-10-16T01:17:51;98017.84;;;15.56;70.15
75039;BME280;63609;49.992;14.512;2022-10-16T01:20:25;98015.50;;;15.45;70.73
75039;BME280;63609;49.992;14.512;2022-10-16T01:23:04;98010.78;;;15.23;71.86
75039;BME280;63609;49.992;14.512;2022-10-16T01:28:18;98008.81;;;15.57;70.75
75039;BME280;63609;49.992;14.512;2022-10-16T01:30:52;97992.88;;;15.56;70.20
75039;BME280;63609;49.992;14.512;2022-10-16T01:33:39;98020.00;;;15.45;70.45
75039;BME280;63609;49.992;14.512;2022-10-16T01:36:13;98019.34;;;15.51;70.06
75039;BME280;63609;49.992;14.512;2022-10-16T01:38:43;98015.50;;;15.37;69.98
75039;BME280;63609;49.992;14.512;2022-10-16T01:41:17;98010.13;;;15.13;70.36
75039;BME280;63609;49.992;14.512;2022-10-16T01:43:53;98015.78;;;14.93;70.56
75039;BME280;63609;49.992;14.512;2022-10-16T01:46:23;98014.78;;;14.94;70.61
75039;BME280;63609;49.992;14.512;2022-10-16T01:48:51;98012.94;;;14.95;71.09
75039;BME280;63609;49.992;14.512;2022-10-16T01:51:20;98020.59;;;14.82;71.79
75039;BME280;63609;49.992;14.512;2022-10-16T01:53:52;98018.75;;;14.74;71.86
75039;BME280;63609;49.992;14.512;2022-10-16T01:56:20;98016.41;;;14.79;72.04
75039;BME280;63609;49.992;14.512;2022-10-16T01:58:53;98015.50;;;14.62;73.31
75039;BME280;63609;49.992;14.512;2022-10-16T02:01:23;98008.78;;;14.58;73.89
75039;BME280;63609;49.992;14.512;2022-10-16T02:03:54;98020.75;;;14.72;74.19
75039;BME280;63609;49.992;14.512;2022-10-16T02:06:24;98014.38;;;14.73;73.92
75039;BME280;63609;49.992;14.512;2022-10-16T02:08:51;98024.38;;;14.63;74.45
75039;BME280;63609;49.992;14.512;2022-10-16T02:11:18;98021.06;;;14.69;74.58
75039;BME280;63609;49.992;14.512;2022-10-16T02:13:48;98024.16;;;14.56;74.99
75039;BME280;63609;49.992;14.512;2022-10-16T02:16:17;98015.25;;;14.47;75.15
75039;BME280;63609;49.992;14.512;2022-10-16T02:18:44;98021.25;;;14.75;74.28
75039;BME280;63609;49.992;14.512;2022-10-16T02:21:26;98019.94;;;14.88;73.75
75039;BME280;63609;49.992;14.512;2022-10-16T02:24:06;98016.28;;;14.97;73.44
75039;BME280;63609;49.992;14.512;2022-10-16T02:27:11;98000.03;;;14.90;73.21
75039;BME280;63609;49.992;14.512;2022-10-16T02:29:43;98010.59;;;14.92;73.23
75039;BME280;63609;49.992;14.512;2022-10-16T02:32:22;98020.59;;;14.82;73.85
75039;BME280;63609;49.992;14.512;2022-10-16T02:34:51;98012.88;;;14.78;73.80
75039;BME280;63609;49.992;14.512;2022-10-16T02:37:19;98019.25;;;14.77;73.66
75039;BME280;63609;49.992;14.512;2022-10-16T02:39:46;98022.16;;;14.92;72.93
75039;BME280;63609;49.992;14.512;2022-10-16T02:42:14;98016.41;;;14.87;73.21
75039;BME280;63609;49.992;14.512;2022-10-16T02:44:41;98022.31;;;14.99;72.65
75039;BME280;63609;49.992;14.512;2022-10-16T02:47:07;98023.34;;;15.06;72.78
75039;BME280;63609;49.992;14.512;2022-10-16T02:49:34;98016.94;;;14.91;73.24
75039;BME280;63609;49.992;14.512;2022-10-16T02:52:01;98018.06;;;14.72;74.03
75039;BME280;63609;49.992;14.512;2022-10-16T02:54:27;98009.88;;;14.73;73.87
75039;BME280;63609;49.992;14.512;2022-10-16T02:56:54;98011.53;;;14.66;74.21
75039;BME280;63609;49.992;14.512;2022-10-16T02:59:20;98003.53;;;14.74;73.90
75039;BME280;63609;49.992;14.512;2022-10-16T03:01:47;98010.19;;;14.70;74.12
75039;BME280;63609;49.992;14.512;2022-10-16T03:04:14;98016.81;;;14.58;74.49
75039;BME280;63609;49.992;14.512;2022-10-16T03:06:41;98022.69;;;14.62;74.36
75039;BME280;63609;49.992;14.512;2022-10-16T03:09:08;98031.41;;;14.64;74.90
75039;BME280;63609;49.992;14.512;2022-10-16T03:11:34;98023.28;;;14.90;73.18
75039;BME280;63609;49.992;14.512;2022-10-16T03:14:01;98018.03;;;14.64;74.45
75039;BME280;63609;49.992;14.512;2022-10-16T03:16:28;98033.63;;;14.76;74.32
75039;BME280;63609;49.992;14.512;2022-10-16T03:18:54;98047.38;;;14.82;74.25
75039;BME280;63609;49.992;14.512;2022-10-16T03:21:21;98049.03;;;14.83;74.26
75039;BME280;63609;49.992;14.512;2022-10-16T03:23:48;98044.06;;;14.96;73.71
75039;BME280;63609;49.992;14.512;2022-10-16T03:26:15;98049.06;;;14.91;74.35
75039;BME280;63609;49.992;14.512;2022-10-16T03:28:42;98054.56;;;14.81;74.10
75039;BME280;63609;49.992;14.512;2022-10-16T03:31:09;98051.34;;;14.69;74.61
75039;BME280;63609;49.992;14.512;2022-10-16T03:33:35;98055.22;;;14.75;74.76
75039;BME280;63609;49.992;14.512;2022-10-16T03:36:02;98049.38;;;14.88;74.13
75039;BME280;63609;49.992;14.512;2022-10-16T03:38:29;98057.09;;;14.91;73.75
75039;BME280;63609;49.992;14.512;2022-10-16T03:40:56;98060.16;;;15.20;72.75
75039;BME280;63609;49.992;14.512;2022-10-16T03:43:22;98066.25;;;15.38;72.19
75039;BME280;63609;49.992;14.512;2022-10-16T03:45:52;98065.66;;;15.02;73.19
75039;BME280;63609;49.992;14.512;2022-10-16T03:48:19;98071.00;;;14.94;73.88
75039;BME280;63609;49.992;14.512;2022-10-16T03:50:46;98074.53;;;14.95;73.74
75039;BME280;63609;49.992;14.512;2022-10-16T03:53:15;98077.91;;;15.13;72.95
75039;BME280;63609;49.992;14.512;2022-10-16T03:55:42;98080.75;;;15.03;73.42
75039;BME280;63609;49.992;14.512;2022-10-16T03:58:09;98089.69;;;15.36;72.54
75039;BME280;63609;49.992;14.512;2022-10-16T04:00:39;98077.22;;;15.03;73.10
75039;BME280;63609;49.992;14.512;2022-10-16T04:03:06;98074.13;;;14.82;73.75
75039;BME280;63609;49.992;14.512;2022-10-16T04:05:33;98067.59;;;14.76;73.90
75039;BME280;63609;49.992;14.512;2022-10-16T04:08:00;98069.94;;;14.79;74.02
75039;BME280;63609;49.992;14.512;2022-10-16T04:10:27;98081.63;;;14.70;74.75
75039;BME280;63609;49.992;14.512;2022-10-16T04:12:53;98069.66;;;14.56;74.81
75039;BME280;63609;49.992;14.512;2022-10-16T04:15:23;98076.13;;;14.71;75.00
75039;BME280;63609;49.992;14.512;2022-10-16T04:17:51;98067.19;;;14.63;74.93
75039;BME280;63609;49.992;14.512;2022-10-16T04:20:18;98076.94;;;14.72;74.97
75039;BME280;63609;49.992;14.512;2022-10-16T04:22:45;98081.63;;;14.70;74.88
75039;BME280;63609;49.992;14.512;2022-10-16T04:25:11;98079.94;;;14.69;75.05
75039;BME280;63609;49.992;14.512;2022-10-16T04:27:38;98092.00;;;14.73;74.84
75039;BME280;63609;49.992;14.512;2022-10-16T04:30:10;98099.03;;;14.74;75.06
75039;BME280;63609;49.992;14.512;2022-10-16T04:32:37;98096.56;;;14.89;74.17
75039;BME280;63609;49.992;14.512;2022-10-16T04:35:04;98086.34;;;14.76;74.24
75039;BME280;63609;49.992;14.512;2022-10-16T04:37:31;98100.38;;;14.70;74.74
75039;BME280;63609;49.992;14.512;2022-10-16T04:39:58;98102.16;;;14.95;73.95
75039;BME280;63609;49.992;14.512;2022-10-16T04:42:25;98109.44;;;14.85;74.35
75039;BME280;63609;49.992;14.512;2022-10-16T04:44:51;98104.75;;;14.79;74.14
75039;BME280;63609;49.992;14.512;2022-10-16T04:47:19;98097.94;;;14.93;73.69
75039;BME280;63609;49.992;14.512;2022-10-16T04:49:46;98111.88;;;15.13;73.17
75039;BME280;63609;49.992;14.512;2022-10-16T04:52:13;98096.78;;;14.95;73.70
75039;BME280;63609;49.992;14.512;2022-10-16T04:54:39;98094.78;;;14.97;73.59
75039;BME280;63609;49.992;14.512;2022-10-16T04:57:06;98098.94;;;14.92;73.89
75039;BME280;63609;49.992;14.512;2022-10-16T04:59:33;98104.59;;;14.89;73.99
75039;BME280;63609;49.992;14.512;2022-10-16T05:01:59;98111.22;;;15.19;72.44
75039;BME280;63609;49.992;14.512;2022-10-16T05:04:26;98113.44;;;14.81;73.78
75039;BME280;63609;49.992;14.512;2022-10-16T05:06:53;98129.25;;;14.92;73.61
75039;BME280;63609;49.992;14.512;2022-10-16T05:09:20;98125.03;;;14.90;74.07
75039;BME280;63609;49.992;14.512;2022-10-16T05:11:46;98116.16;;;14.89;73.88
75039;BME280;63609;49.992;14.512;2022-10-16T05:14:13;98114.91;;;14.67;74.25
75039;BME280;63609;49.992;14.512;2022-10-16T05:16:40;98097.22;;;14.83;74.21
75039;BME280;63609;49.992;14.512;2022-10-16T05:19:07;98093.72;;;14.90;73.83
75039;BME280;63609;49.992;14.512;2022-10-16T05:21:53;98100.19;;;14.71;74.46
75039;BME280;63609;49.992;14.512;2022-10-16T05:24:19;98089.38;;;14.55;75.09
75039;BME280;63609;49.992;14.512;2022-10-16T05:26:46;98100.53;;;14.42;75.96
75039;BME280;63609;49.992;14.512;2022-10-16T05:29:13;98112.06;;;14.69;74.55
75039;BME280;63609;49.992;14.512;2022-10-16T05:31:40;98099.25;;;14.55;75.29
75039;BME280;63609;49.992;14.512;2022-10-16T05:34:07;98107.69;;;15.02;73.28
75039;BME280;63609;49.992;14.512;2022-10-16T05:36:34;98125.56;;;14.93;73.69
75039;BME280;63609;49.992;14.512;2022-10-16T05:39:00;98118.00;;;14.89;73.51
75039;BME280;63609;49.992;14.512;2022-10-16T05:41:27;98135.03;;;14.79;72.59
75039;BME280;63609;49.992;14.512;2022-10-16T05:43:54;98123.94;;;14.66;73.94
75039;BME280;63609;49.992;14.512;2022-10-16T05:46:20;98135.72;;;14.82;73.90
75039;BME280;63609;49.992;14.512;2022-10-16T05:48:47;98147.09;;;14.58;74.35
75039;BME280;63609;49.992;14.512;2022-10-16T05:51:14;98144.75;;;14.80;73.95
75039;BME280;63609;49.992;14.512;2022-10-16T05:53:41;98147.09;;;14.84;73.66
75039;BME280;63609;49.992;14.512;2022-10-16T05:56:10;98151.78;;;14.82;73.27
75039;BME280;63609;49.992;14.512;2022-10-16T05:58:38;98144.75;;;14.89;73.66
75039;BME280;63609;49.992;14.512;2022-10-16T06:01:12;98150.59;;;14.84;73.96
75039;BME280;63609;49.992;14.512;2022-10-16T06:03:39;98152.13;;;14.87;73.34
75039;BME280;63609;49.992;14.512;2022-10-16T06:06:16;98159.81;;;14.82;73.50
75039;BME280;63609;49.992;14.512;2022-10-16T06:08:44;98162.22;;;14.93;73.45
75039;BME280;63609;49.992;14.512;2022-10-16T06:11:15;98156.25;;;14.73;74.03
75039;BME280;63609;49.992;14.512;2022-10-16T06:13:42;98158.13;;;14.80;74.21
75039;BME280;63609;49.992;14.512;2022-10-16T06:16:10;98155.56;;;14.71;74.41
75039;BME280;63609;49.992;14.512;2022-10-16T06:18:38;98149.75;;;14.75;74.15
75039;BME280;63609;49.992;14.512;2022-10-16T06:21:11;98165.31;;;14.80;74.13
75039;BME280;63609;49.992;14.512;2022-10-16T06:23:37;98173.00;;;14.75;73.96
75039;BME280;63609;49.992;14.512;2022-10-16T06:26:13;98182.00;;;15.08;73.22
75039;BME280;63609;49.992;14.512;2022-10-16T06:28:40;98182.38;;;15.21;73.20
75039;BME280;63609;49.992;14.512;2022-10-16T06:31:08;98191.75;;;15.17;72.75
75039;BME280;63609;49.992;14.512;2022-10-16T06:33:36;98195.53;;;15.40;71.73
75039;BME280;63609;49.992;14.512;2022-10-16T06:36:14;98194.84;;;15.38;71.82
75039;BME280;63609;49.992;14.512;2022-10-16T06:38:41;98202.94;;;15.13;72.63
75039;BME280;63609;49.992;14.512;2022-10-16T06:41:11;98202.34;;;15.27;72.39
75039;BME280;63609;49.992;14.512;2022-10-16T06:43:38;98213.19;;;15.17;73.04
75039;BME280;63609;49.992;14.512;2022-10-16T06:46:07;98208.63;;;15.09;72.78
75039;BME280;63609;49.992;14.512;2022-10-16T06:48:36;98213.00;;;15.19;73.15
75039;BME280;63609;49.992;14.512;2022-10-16T06:51:06;98222.69;;;15.11;73.14
75039;BME280;63609;49.992;14.512;2022-10-16T06:53:34;98227.38;;;15.09;73.06
75039;BME280;63609;49.992;14.512;2022-10-16T06:56:24;98230.22;;;15.08;73.12
75039;BME280;63609;49.992;14.512;2022-10-16T06:58:52;98231.22;;;15.49;72.19
75039;BME280;63609;49.992;14.512;2022-10-16T07:01:21;98227.94;;;15.21;72.99
75039;BME280;63609;49.992;14.512;2022-10-16T07:03:49;98232.41;;;15.13;72.97
75039;BME280;63609;49.992;14.512;2022-10-16T07:06:18;98230.69;;;15.37;72.83
75039;BME280;63609;49.992;14.512;2022-10-16T07:08:47;98240.41;;;15.38;72.27
75039;BME280;63609;49.992;14.512;2022-10-16T07:11:16;98243.47;;;15.52;72.37
75039;BME280;63609;49.992;14.512;2022-10-16T07:13:44;98235.25;;;15.53;71.94
75039;BME280;63609;49.992;14.512;2022-10-16T07:16:22;98235.91;;;15.47;72.31
75039;BME280;63609;49.992;14.512;2022-10-16T07:18:49;98235.88;;;15.39;72.01
75039;BME280;63609;49.992;14.512;2022-10-16T07:21:21;98242.06;;;15.82;71.15
75039;BME280;63609;49.992;14.512;2022-10-16T07:23:53;98254.28;;;15.68;71.07
75039;BME280;63609;49.992;14.512;2022-10-16T07:26:21;98263.44;;;15.57;71.78
75039;BME280;63609;49.992;14.512;2022-10-16T07:28:48;98265.69;;;15.36;72.14
75039;BME280;63609;49.992;14.512;2022-10-16T07:31:18;98269.94;;;15.55;71.60
75039;BME280;63609;49.992;14.512;2022-10-16T07:33:46;98283.75;;;15.68;71.42
75039;BME280;63609;49.992;14.512;2022-10-16T07:36:18;98279.06;;;15.70;70.79
75039;BME280;63609;49.992;14.512;2022-10-16T07:38:45;98274.56;;;15.70;71.94
75039;BME280;63609;49.992;14.512;2022-10-16T07:41:18;98276.25;;;15.80;71.16
75039;BME280;63609;49.992;14.512;2022-10-16T07:43:48;98277.97;;;15.89;71.60
75039;BME280;63609;49.992;14.512;2022-10-16T07:46:15;98279.00;;;16.04;71.38
75039;BME280;63609;49.992;14.512;2022-10-16T07:48:43;98285.47;;;15.85;71.05
75039;BME280;63609;49.992;14.512;2022-10-16T07:51:16;98278.31;;;15.94;70.81
75039;BME280;63609;49.992;14.512;2022-10-16T07:53:43;98287.19;;;15.94;70.77
75039;BME280;63609;49.992;14.512;2022-10-16T07:56:10;98277.66;;;16.00;69.71
75039;BME280;63609;49.992;14.512;2022-10-16T07:58:38;98282.19;;;16.16;70.76
75039;BME280;63609;49.992;14.512;2022-10-16T08:01:11;98287.41;;;16.42;69.77
75039;BME280;63609;49.992;14.512;2022-10-16T08:03:37;98288.75;;;16.38;69.20
75039;BME280;63609;49.992;14.512;2022-10-16T08:06:05;98288.13;;;16.68;69.02
75039;BME280;63609;49.992;14.512;2022-10-16T08:08:31;98295.66;;;16.81;68.63
75039;BME280;63609;49.992;14.512;2022-10-16T08:10:58;98282.72;;;16.52;69.36
75039;BME280;63609;49.992;14.512;2022-10-16T08:13:25;98279.19;;;16.84;69.18
75039;BME280;63609;49.992;14.512;2022-10-16T08:15:53;98275.38;;;16.86;68.24
75039;BME280;63609;49.992;14.512;2022-10-16T08:18:20;98290.97;;;16.75;69.00
75039;BME280;63609;49.992;14.512;2022-10-16T08:20:47;98292.78;;;16.99;68.12
75039;BME280;63609;49.992;14.512;2022-10-16T08:23:13;98297.44;;;17.13;67.88
75039;BME280;63609;49.992;14.512;2022-10-16T08:25:40;98294.59;;;17.14;67.89
75039;BME280;63609;49.992;14.512;2022-10-16T08:28:09;98282.03;;;17.07;67.88
75039;BME280;63609;49.992;14.512;2022-10-16T08:30:37;98292.72;;;17.31;68.20
75039;BME280;63609;49.992;14.512;2022-10-16T08:33:04;98286.47;;;17.39;68.08
75039;BME280;63609;49.992;14.512;2022-10-16T08:35:33;98289.28;;;17.62;68.59
75039;BME280;63609;49.992;14.512;2022-10-16T08:38:00;98282.81;;;17.32;68.71
75039;BME280;63609;49.992;14.512;2022-10-16T08:40:29;98288.41;;;17.69;68.21
75039;BME280;63609;49.992;14.512;2022-10-16T08:43:34;98293.63;;;17.63;67.74
75039;BME280;63609;49.992;14.512;2022-10-16T08:48:51;98303.88;;;17.67;67.65
75039;BME280;63609;49.992;14.512;2022-10-16T08:51:30;98302.19;;;17.66;66.92
75039;BME280;63609;49.992;14.512;2022-10-16T08:54:06;98318.41;;;17.34;67.83
75039;BME280;63609;49.992;14.512;2022-10-16T08:56:37;98321.22;;;17.48;67.48
75039;BME280;63609;49.992;14.512;2022-10-16T08:59:06;98310.38;;;17.17;67.99
75039;BME280;63609;49.992;14.512;2022-10-16T09:01:45;98315.06;;;17.15;69.20
75039;BME280;63609;49.992;14.512;2022-10-16T09:04:38;98316.38;;;17.36;67.77
75039;BME280;63609;49.992;14.512;2022-10-16T09:07:14;98308.31;;;17.36;68.01
75039;BME280;63609;49.992;14.512;2022-10-16T09:15:35;98315.06;;;17.87;67.92
75039;BME280;63609;49.992;14.512;2022-10-16T09:18:12;98321.94;;;17.81;68.22
75039;BME280;63609;49.992;14.512;2022-10-16T09:21:03;98311.72;;;17.77;67.55
75039;BME280;63609;49.992;14.512;2022-10-16T09:23:34;98320.44;;;18.18;67.35
75039;BME280;63609;49.992;14.512;2022-10-16T09:26:02;98306.97;;;17.87;67.27
75039;BME280;63609;49.992;14.512;2022-10-16T09:28:30;98303.84;;;18.06;67.14
75039;BME280;63609;49.992;14.512;2022-10-16T09:30:57;98318.78;;;18.63;66.28
75039;BME280;63609;49.992;14.512;2022-10-16T09:33:29;98328.75;;;19.00;66.32
75039;BME280;63609;49.992;14.512;2022-10-16T09:35:57;98317.78;;;18.41;64.37
75039;BME280;63609;49.992;14.512;2022-10-16T09:38:29;98336.38;;;18.73;64.70
75039;BME280;63609;49.992;14.512;2022-10-16T09:40:58;98334.34;;;18.75;64.14
75039;BME280;63609;49.992;14.512;2022-10-16T09:43:34;98344.63;;;18.72;64.51
75039;BME280;63609;49.992;14.512;2022-10-16T09:46:06;98353.09;;;18.38;65.62
75039;BME280;63609;49.992;14.512;2022-10-16T09:48:37;98355.00;;;18.60;64.93
75039;BME280;63609;49.992;14.512;2022-10-16T09:51:37;98362.41;;;18.81;64.67
75039;BME280;63609;49.992;14.512;2022-10-16T09:56:36;98366.66;;;18.98;62.96
75039;BME280;63609;49.992;14.512;2022-10-16T09:59:31;98363.47;;;19.18;63.37
75039;BME280;63609;49.992;14.512;2022-10-16T10:02:03;98363.59;;;19.24;64.14
75039;BME280;63609;49.992;14.512;2022-10-16T10:04:39;98370.28;;;19.28;63.01
75039;BME280;63609;49.992;14.512;2022-10-16T10:07:17;98351.88;;;18.94;63.26
75039;BME280;63609;49.992;14.512;2022-10-16T10:09:45;98360.81;;;19.09;63.30
75039;BME280;63609;49.992;14.512;2022-10-16T10:12:19;98360.13;;;18.93;63.67
75039;BME280;63609;49.992;14.512;2022-10-16T10:14:56;98349.19;;;18.94;63.04
75039;BME280;63609;49.992;14.512;2022-10-16T10:17:25;98364.78;;;19.22;63.45
75039;BME280;63609;49.992;14.512;2022-10-16T10:20:18;98361.94;;;19.67;62.16
75039;BME280;63609;49.992;14.512;2022-10-16T10:22:48;98346.50;;;20.05;62.53
75039;BME280;63609;49.992;14.512;2022-10-16T10:28:37;98345.91;;;20.10;61.83
75039;BME280;63609;49.992;14.512;2022-10-16T10:31:15;98348.88;;;20.73;59.72
75039;BME280;63609;49.992;14.512;2022-10-16T10:36:35;98354.47;;;20.86;58.55
75039;BME280;63609;49.992;14.512;2022-10-16T10:39:08;98352.97;;;20.83;57.69
75039;BME280;63609;49.992;14.512;2022-10-16T10:47:43;98357.59;;;21.67;54.81
75039;BME280;63609;49.992;14.512;2022-10-16T10:50:23;98354.72;;;22.23;56.68
75039;BME280;63609;49.992;14.512;2022-10-16T10:55:57;98339.44;;;22.63;54.32
75039;BME280;63609;49.992;14.512;2022-10-16T11:01:16;98351.09;;;22.02;54.25
75039;BME280;63609;49.992;14.512;2022-10-16T11:07:23;98330.47;;;21.32;54.72
75039;BME280;63609;49.992;14.512;2022-10-16T11:09:55;98337.69;;;21.53;55.11
75039;BME280;63609;49.992;14.512;2022-10-16T11:12:31;98349.03;;;21.63;54.37
75039;BME280;63609;49.992;14.512;2022-10-16T11:15:07;98358.91;;;21.21;55.62
75039;BME280;63609;49.992;14.512;2022-10-16T11:17:50;98349.69;;;20.88;56.27
75039;BME280;63609;49.992;14.512;2022-10-16T11:20:23;98350.56;;;21.16;55.60
75039;BME280;63609;49.992;14.512;2022-10-16T11:22:59;98346.09;;;20.81;56.31
75039;BME280;63609;49.992;14.512;2022-10-16T11:25:32;98355.00;;;20.60;56.76
75039;BME280;63609;49.992;14.512;2022-10-16T11:28:14;98353.66;;;20.71;56.85
75039;BME280;63609;49.992;14.512;2022-10-16T11:31:00;98351.88;;;20.78;56.64
75039;BME280;63609;49.992;14.512;2022-10-16T11:33:49;98353.09;;;20.96;56.17
75039;BME280;63609;49.992;14.512;2022-10-16T11:42:05;98357.19;;;21.14;55.86
75039;BME280;63609;49.992;14.512;2022-10-16T11:50:39;98360.34;;;21.45;55.89
75039;BME280;63609;49.992;14.512;2022-10-16T11:55:47;98354.16;;;21.23;56.01
75039;BME280;63609;49.992;14.512;2022-10-16T12:08:58;98364.75;;;21.81;55.65
75039;BME280;63609;49.992;14.512;2022-10-16T12:14:07;98355.84;;;21.87;55.41
75039;BME280;63609;49.992;14.512;2022-10-16T12:16:54;98361.78;;;22.10;56.27
75039;BME280;63609;49.992;14.512;2022-10-16T12:19:23;98356.09;;;21.64;56.26
75039;BME280;63609;49.992;14.512;2022-10-16T12:21:51;98350.53;;;21.72;56.83
75039;BME280;63609;49.992;14.512;2022-10-16T12:24:27;98356.94;;;21.65;57.36
75039;BME280;63609;49.992;14.512;2022-10-16T12:26:56;98353.50;;;21.77;55.36
75039;BME280;63609;49.992;14.512;2022-10-16T12:29:38;98351.28;;;21.94;56.96
75039;BME280;63609;49.992;14.512;2022-10-16T12:32:25;98352.53;;;21.98;56.83
75039;BME280;63609;49.992;14.512;2022-10-16T12:35:44;98352.13;;;21.95;55.71
75039;BME280;63609;49.992;14.512;2022-10-16T12:38:20;98338.88;;;22.13;55.34
75039;BME280;63609;49.992;14.512;2022-10-16T12:41:08;98337.41;;;22.17;55.21
75039;BME280;63609;49.992;14.512;2022-10-16T12:48:31;98343.91;;;23.10;52.99
75039;BME280;63609;49.992;14.512;2022-10-16T12:51:33;98348.88;;;23.33;54.69
75039;BME280;63609;49.992;14.512;2022-10-16T12:59:45;98332.13;;;22.57;53.39
75039;BME280;63609;49.992;14.512;2022-10-16T13:05:23;98344.84;;;22.56;53.14
75039;BME280;63609;49.992;14.512;2022-10-16T13:13:18;98357.38;;;22.70;52.53
75039;BME280;63609;49.992;14.512;2022-10-16T13:28:14;98376.22;;;23.31;50.34
75039;BME280;63609;49.992;14.512;2022-10-16T13:30:57;98361.97;;;22.63;51.62
75039;BME280;63609;49.992;14.512;2022-10-16T13:33:38;98337.34;;;22.51;51.28
75039;BME280;63609;49.992;14.512;2022-10-16T13:40:18;98353.03;;;22.89;50.82
75039;BME280;63609;49.992;14.512;2022-10-16T13:42:50;98390.03;;;23.43;50.42
75039;BME280;63609;49.992;14.512;2022-10-16T13:45:23;98381.88;;;23.50;51.89
75039;BME280;63609;49.992;14.512;2022-10-16T13:48:05;98380.41;;;23.40;50.78
75039;BME280;63609;49.992;14.512;2022-10-16T13:50:36;98388.56;;;23.14;51.57
75039;BME280;63609;49.992;14.512;2022-10-16T13:53:21;98380.84;;;23.18;51.54
75039;BME280;63609;49.992;14.512;2022-10-16T13:55:47;98382.31;;;23.07;52.14
75039;BME280;63609;49.992;14.512;2022-10-16T13:58:14;98391.91;;;23.09;53.03
75039;BME280;63609;49.992;14.512;2022-10-16T14:01:00;98390.78;;;22.91;53.98
75039;BME280;63609;49.992;14.512;2022-10-16T14:03:32;98390.56;;;22.72;54.76
75039;BME280;63609;49.992;14.512;2022-10-16T14:06:03;98381.19;;;22.75;54.49
75039;BME280;63609;49.992;14.512;2022-10-16T14:08:31;98391.41;;;22.93;54.43
75039;BME280;63609;49.992;14.512;2022-10-16T14:11:01;98400.19;;;22.95;54.07
75039;BME280;63609;49.992;14.512;2022-10-16T14:13:31;98401.66;;;22.91;54.01
75039;BME280;63609;49.992;14.512;2022-10-16T14:16:07;98399.97;;;22.96;54.42
75039;BME280;63609;49.992;14.512;2022-10-16T14:18:57;98405.81;;;22.87;54.86
75039;BME280;63609;49.992;14.512;2022-10-16T14:21:26;98402.88;;;22.81;53.50
75039;BME280;63609;49.992;14.512;2022-10-16T14:23:52;98403.09;;;22.73;53.59
75039;BME280;63609;49.992;14.512;2022-10-16T14:26:41;98405.34;;;22.70;55.17
75039;BME280;63609;49.992;14.512;2022-10-16T14:29:18;98399.06;;;22.56;55.71
75039;BME280;63609;49.992;14.512;2022-10-16T14:32:04;98390.28;;;22.47;55.78
75039;BME280;63609;49.992;14.512;2022-10-16T14:34:33;98404.41;;;22.36;54.71
75039;BME280;63609;49.992;14.512;2022-10-16T14:37:27;98405.19;;;21.89;56.01
75039;BME280;63609;49.992;14.512;2022-10-16T14:39:54;98399.16;;;21.87;57.82
75039;BME280;63609;49.992;14.512;2022-10-16T14:42:27;98390.06;;;21.67;57.77
75039;BME280;63609;49.992;14.512;2022-10-16T14:44:55;98391.59;;;21.48;58.42
75039;BME280;63609;49.992;14.512;2022-10-16T14:47:24;98390.25;;;21.65;58.29
75039;BME280;63609;49.992;14.512;2022-10-16T14:49:54;98396.75;;;21.71;57.91
75039;BME280;63609;49.992;14.512;2022-10-16T14:52:22;98389.13;;;21.81;58.05
75039;BME280;63609;49.992;14.512;2022-10-16T14:54:51;98387.13;;;21.62;57.39
75039;BME280;63609;49.992;14.512;2022-10-16T15:15:55;98355.06;;;22.47;56.30
75039;BME280;63609;49.992;14.512;2022-10-16T15:18:25;98382.78;;;22.49;55.58